Time;durP1;ratioP1;P1;durP2;ratioP2;P2;SDS_P1;SDS_P2;PMS_P1;PMS_P2;Temp;Humidity;BMP_temperature;BMP_pressure;BME280_temperature;BME280_humidity;BME280_pressure;Samples;Min_cycle;Max_cycle;Signal;HPM_P1;HPM_P2
2021/06/25 00:00:22;;;;;;;;;20.75;20.25;;;;;15.46;53.04;101901.63;6337643;22;45251;-89
2021/06/25 00:02:47;;;;;;;;;19.25;18.25;;;;;15.41;53.50;101898.31;6337971;22;45335;-89
2021/06/25 00:05:12;;;;;;;;;21.50;20.50;;;;;15.37;53.26;101892.34;6335673;22;45408;-89
2021/06/25 00:07:38;;;;;;;;;16.75;16.25;;;;;15.34;53.35;101893.31;6337709;22;45872;-89
2021/06/25 00:10:06;;;;;;;;;19.75;19.75;;;;;15.30;53.44;101890.84;6362166;22;46137;-89
2021/06/25 00:12:32;;;;;;;;;18.25;17.25;;;;;15.30;53.46;101894.34;6335850;22;45351;-89
2021/06/25 00:14:57;;;;;;;;;24.75;21.00;;;;;15.27;53.89;101891.81;6362231;22;45264;-89
2021/06/25 00:17:23;;;;;;;;;19.50;18.75;;;;;15.27;53.87;101888.34;6337719;22;45634;-89
2021/06/25 00:19:48;;;;;;;;;19.50;17.00;;;;;15.20;54.17;101879.84;6335628;22;45264;-89
2021/06/25 00:22:14;;;;;;;;;24.00;21.00;;;;;15.22;54.26;101886.75;6337358;22;45317;-89
2021/06/25 00:24:39;;;;;;;;;19.50;19.00;;;;;15.17;54.14;101880.81;6335857;22;45250;-89
2021/06/25 00:27:05;;;;;;;;;23.50;21.75;;;;;15.17;54.17;101885.19;6335033;22;47420;-89
2021/06/25 00:29:31;;;;;;;;;22.25;22.25;;;;;15.16;54.05;101883.50;6337517;22;45414;-89
2021/06/25 00:31:56;;;;;;;;;23.50;20.50;;;;;15.13;54.29;101881.00;6337828;22;45602;-89
2021/06/25 00:34:22;;;;;;;;;21.75;18.50;;;;;15.09;54.52;101886.34;6338052;22;45370;-88
2021/06/25 00:36:47;;;;;;;;;21.75;20.75;;;;;15.07;54.52;101874.19;6334991;22;47060;-89
2021/06/25 00:39:13;;;;;;;;;20.75;20.50;;;;;15.05;54.50;101866.38;6335700;22;45577;-89
2021/06/25 00:41:39;;;;;;;;;20.25;18.75;;;;;15.00;54.58;101868.31;6337710;22;45315;-89
2021/06/25 00:44:04;;;;;;;;;21.50;21.00;;;;;14.99;54.96;101869.25;6336111;22;45222;-89
2021/06/25 00:46:31;;;;;;;;;21.50;21.00;;;;;15.00;54.74;101875.34;6336913;22;46194;-89
2021/06/25 00:48:57;;;;;;;;;20.25;18.00;;;;;14.97;54.89;101871.06;6337562;22;45331;-89
2021/06/25 00:51:23;;;;;;;;;19.50;19.25;;;;;14.93;54.82;101864.22;6337581;22;45340;-89
2021/06/25 00:53:48;;;;;;;;;20.00;19.00;;;;;14.93;55.19;101869.47;6337632;22;45342;-88
2021/06/25 00:56:13;;;;;;;;;21.50;19.00;;;;;14.89;55.03;101862.63;6337673;22;46437;-89
2021/06/25 00:58:40;;;;;;;;;21.75;20.75;;;;;14.85;55.14;101858.41;6335057;22;45606;-90
2021/06/25 01:01:06;;;;;;;;;20.00;17.25;;;;;14.85;55.19;101850.56;6337840;22;45280;-89
2021/06/25 01:03:33;;;;;;;;;19.00;18.50;;;;;14.82;55.23;101854.16;6362430;22;45230;-89
2021/06/25 01:05:59;;;;;;;;;23.75;19.25;;;;;14.77;55.37;101853.44;6335445;22;46472;-88
2021/06/25 01:08:26;;;;;;;;;19.75;19.00;;;;;14.76;55.57;101849.13;6336157;22;45280;-89
2021/06/25 01:10:54;;;;;;;;;21.00;18.25;;;;;14.73;55.35;101852.69;6335449;22;45317;-89
2021/06/25 01:13:20;;;;;;;;;19.25;18.00;;;;;14.72;55.52;101856.19;6337658;22;45490;-89
2021/06/25 01:15:46;;;;;;;;;19.50;16.75;;;;;14.66;55.64;101845.94;6361997;22;47084;-89
2021/06/25 01:18:11;;;;;;;;;26.75;22.00;;;;;14.67;55.56;101845.00;6334921;22;45155;-89
2021/06/25 01:20:37;;;;;;;;;20.75;19.00;;;;;14.66;55.68;101848.53;6337951;22;45142;-89
2021/06/25 01:23:03;;;;;;;;;20.25;17.75;;;;;14.63;56.06;101839.03;6337701;22;45310;-89
2021/06/25 01:25:33;;;;;;;;;18.00;18.00;;;;;14.61;56.13;101840.00;6337228;22;45349;-89
2021/06/25 01:28:02;;;;;;;;;23.75;20.00;;;;;14.59;56.25;101840.06;6335586;22;45241;-89
2021/06/25 01:30:31;;;;;;;;;20.25;19.00;;;;;14.57;56.33;101832.25;6336842;22;45372;-87
2021/06/25 01:32:59;;;;;;;;;23.00;19.75;;;;;14.53;56.28;101828.03;6337437;22;45345;-89
2021/06/25 01:35:24;;;;;;;;;19.75;18.25;;;;;14.51;56.40;101829.00;6361881;22;46424;-89
2021/06/25 01:37:50;;;;;;;;;20.50;20.00;;;;;14.54;56.54;101844.63;6336910;22;45236;-88
2021/06/25 01:40:19;;;;;;;;;20.25;18.75;;;;;14.50;56.35;101840.38;6337065;22;45312;-89
2021/06/25 01:42:46;;;;;;;;;22.75;20.25;;;;;14.46;56.60;101834.41;6337731;22;45290;-90
2021/06/25 01:45:23;;;;;;;;;21.50;20.00;;;;;14.46;56.55;101834.41;6337244;22;46481;-89
2021/06/25 01:47:51;;;;;;;;;21.25;20.00;;;;;14.43;56.59;101826.63;6337236;22;45388;-89
2021/06/25 01:50:24;;;;;;;;;19.25;18.75;;;;;14.40;56.52;101826.75;6335152;22;45405;-89
2021/06/25 01:52:52;;;;;;;;;19.75;19.25;;;;;14.39;56.89;101828.50;6335304;22;45241;-89
2021/06/25 01:55:18;;;;;;;;;19.00;18.75;;;;;14.35;56.74;101820.81;6337078;22;46336;-89
2021/06/25 01:57:44;;;;;;;;;18.75;18.75;;;;;14.32;56.66;101819.16;6362110;22;45148;-89
2021/06/25 02:00:11;;;;;;;;;22.00;19.25;;;;;14.33;56.82;101823.50;6337059;22;45357;-89
2021/06/25 02:02:37;;;;;;;;;20.50;20.25;;;;;14.33;56.80;101822.63;6335160;22;45579;-89
2021/06/25 02:05:05;;;;;;;;;19.75;19.50;;;;;14.28;56.85;101826.28;6334682;22;46977;-89
2021/06/25 02:07:30;;;;;;;;;18.75;17.00;;;;;14.25;56.71;101820.25;6337264;22;45292;-89
2021/06/25 02:09:56;;;;;;;;;22.00;21.25;;;;;14.24;56.66;101819.44;6337000;22;45413;-89
2021/06/25 02:12:23;;;;;;;;;18.75;16.75;;;;;14.21;57.01;101816.06;6334623;22;45466;-89
2021/06/25 02:14:48;;;;;;;;;20.50;19.50;;;;;14.18;57.09;101810.91;6335091;22;46230;-89
2021/06/25 02:17:16;;;;;;;;;21.25;18.00;;;;;14.16;56.65;101814.44;6334368;22;45275;-89
2021/06/25 02:19:42;;;;;;;;;19.75;17.00;;;;;14.18;57.07;101813.53;6335137;22;45248;-89
2021/06/25 02:22:07;;;;;;;;;20.25;18.00;;;;;14.12;57.07;101802.38;6360903;22;44790;-89
2021/06/25 02:24:32;;;;;;;;;21.75;20.75;;;;;14.10;57.05;101790.25;6360307;22;46852;-89
2021/06/25 02:26:58;;;;;;;;;21.00;19.75;;;;;14.10;57.27;101790.25;6337139;22;45241;-89
2021/06/25 02:29:23;;;;;;;;;21.00;20.00;;;;;14.07;57.14;101793.81;6335194;22;45209;-89
2021/06/25 02:31:49;;;;;;;;;21.75;18.75;;;;;14.09;57.67;101793.78;6337246;22;45356;-89
2021/06/25 02:34:14;;;;;;;;;19.00;18.00;;;;;14.07;57.41;101790.34;6334174;22;47139;-90
2021/06/25 02:36:39;;;;;;;;;25.75;21.00;;;;;14.06;57.59;101791.28;6336804;22;45800;-88
2021/06/25 02:39:05;;;;;;;;;25.25;21.25;;;;;14.07;57.35;101787.75;6336712;22;45314;-89
2021/06/25 02:41:30;;;;;;;;;18.50;16.75;;;;;14.01;57.65;101779.19;6361596;22;45487;-89
2021/06/25 02:43:56;;;;;;;;;20.25;20.25;;;;;14.04;57.32;101788.69;6336266;22;45524;-88
2021/06/25 02:46:21;;;;;;;;;22.75;21.75;;;;;14.01;57.44;101791.41;6337203;22;45229;-89
2021/06/25 02:48:47;;;;;;;;;18.75;16.00;;;;;13.99;57.45;101782.75;6337058;22;45126;-88
2021/06/25 02:51:12;;;;;;;;;23.50;20.75;;;;;14.00;57.74;101785.34;6337365;22;45347;-89
2021/06/25 02:53:38;;;;;;;;;19.75;19.50;;;;;13.96;57.67;101778.50;6334267;22;47413;-89
2021/06/25 02:56:03;;;;;;;;;23.50;20.75;;;;;13.95;57.37;101781.16;6336229;22;45260;-89
2021/06/25 02:58:29;;;;;;;;;19.50;18.25;;;;;13.93;57.65;101782.97;6336842;22;45492;-89
2021/06/25 03:00:55;;;;;;;;;16.50;16.00;;;;;13.91;57.85;101780.41;6336984;22;45367;-89
2021/06/25 03:03:21;;;;;;;;;18.75;18.25;;;;;13.92;58.03;101776.03;6361117;22;47924;-89
2021/06/25 03:05:47;;;;;;;;;24.50;22.00;;;;;13.90;57.83;101779.53;6336136;22;45292;-89
2021/06/25 03:08:13;;;;;;;;;20.75;20.00;;;;;13.91;58.01;101780.41;6336707;22;45218;-88
2021/06/25 03:10:41;;;;;;;;;20.50;17.50;;;;;13.89;58.02;101780.44;6336060;22;45254;-89
2021/06/25 03:13:06;;;;;;;;;19.00;18.50;;;;;13.87;57.97;101778.78;6334211;22;46359;-89
2021/06/25 03:15:32;;;;;;;;;21.75;21.25;;;;;13.86;58.36;101771.84;6336330;22;45387;-89
2021/06/25 03:17:58;;;;;;;;;22.75;20.75;;;;;13.85;58.23;101773.59;6336911;22;45370;-89
2021/06/25 03:20:23;;;;;;;;;24.50;21.75;;;;;13.84;58.13;101774.50;6335019;22;45284;-89
2021/06/25 03:22:49;;;;;;;;;17.25;15.00;;;;;13.84;58.22;101773.66;6334694;22;48412;-88
2021/06/25 03:25:15;;;;;;;;;17.00;16.00;;;;;13.83;58.04;101774.56;6336072;22;45299;-89
2021/06/25 03:27:40;;;;;;;;;23.50;21.00;;;;;13.82;58.35;101775.47;6334359;22;45379;-89
2021/06/25 03:30:08;;;;;;;;;23.50;21.75;;;;;13.82;58.47;101770.22;6334773;22;45333;-89
2021/06/25 03:32:34;;;;;;;;;22.50;20.25;;;;;13.79;57.90;101779.03;6336075;22;46475;-88
2021/06/25 03:35:00;;;;;;;;;21.00;20.50;;;;;13.76;58.30;101772.13;6335841;22;45257;-89
2021/06/25 03:37:25;;;;;;;;;19.50;19.50;;;;;13.75;58.35;101773.06;6362094;22;45238;-90
2021/06/25 03:39:51;;;;;;;;;23.25;22.00;;;;;13.75;58.46;101778.28;6336123;22;45063;-89
2021/06/25 03:42:16;;;;;;;;;23.25;21.00;;;;;13.73;58.45;101779.25;6335810;22;46897;-89
2021/06/25 03:44:42;;;;;;;;;19.75;17.75;;;;;13.70;58.52;101774.97;6337899;22;45228;-89
2021/06/25 03:47:08;;;;;;;;;20.25;18.50;;;;;13.71;58.50;101779.28;6338645;22;46051;-89
2021/06/25 03:49:34;;;;;;;;;20.25;20.25;;;;;13.73;58.64;101782.72;6338084;22;45414;-89
2021/06/25 03:52:00;;;;;;;;;18.25;18.00;;;;;13.72;58.71;101778.41;6335531;22;48335;-89
2021/06/25 03:54:25;;;;;;;;;19.25;19.25;;;;;13.71;58.85;101776.66;6337830;22;45327;-89
2021/06/25 03:56:51;;;;;;;;;21.25;18.75;;;;;13.69;58.87;101772.38;6362632;22;45367;-89
2021/06/25 03:59:16;;;;;;;;;22.00;22.00;;;;;13.72;59.02;101774.91;6362816;22;45558;-89
2021/06/25 04:01:42;;;;;;;;;23.25;21.25;;;;;13.72;59.01;101773.16;6335947;22;47031;-89
2021/06/25 04:04:08;;;;;;;;;22.75;21.25;;;;;13.72;58.83;101767.94;6337650;22;45231;-89
2021/06/25 04:06:33;;;;;;;;;20.00;19.50;;;;;13.75;58.58;101770.44;6336229;22;45383;-89
2021/06/25 04:08:59;;;;;;;;;24.50;22.25;;;;;13.78;59.20;101768.66;6335662;22;45456;-89
2021/06/25 04:11:24;;;;;;;;;24.75;23.25;;;;;13.76;59.18;101766.91;6336756;22;45653;-90
2021/06/25 04:13:50;;;;;;;;;31.50;25.25;;;;;13.80;59.27;101759.81;6338028;22;45185;-90
2021/06/25 04:16:15;;;;;;;;;24.00;23.00;;;;;13.80;59.08;101759.81;6336108;22;45276;-88
2021/06/25 04:18:41;;;;;;;;;27.50;25.75;;;;;13.84;59.34;101760.59;6338321;22;45167;-89
2021/06/25 04:21:07;;;;;;;;;22.50;21.50;;;;;13.87;58.96;101763.94;6337884;22;45530;-90
2021/06/25 04:23:32;;;;;;;;;24.75;23.00;;;;;13.88;59.67;101762.16;6336502;22;45187;-89
2021/06/25 04:25:59;;;;;;;;;24.25;21.25;;;;;13.91;59.60;101769.94;6338252;22;44770;-89
2021/06/25 04:28:24;;;;;;;;;24.25;20.25;;;;;13.94;59.81;101764.59;6339010;22;45226;-89
2021/06/25 04:30:50;;;;;;;;;28.75;26.50;;;;;13.97;59.87;101772.34;6335348;22;47745;-89
2021/06/25 04:33:16;;;;;;;;;24.25;22.25;;;;;14.03;60.12;101774.75;6337650;22;45342;-89
2021/06/25 04:35:42;;;;;;;;;16.25;14.75;;;;;14.07;59.73;101778.09;6337894;22;45532;-90
2021/06/25 04:38:09;;;;;;;;;24.00;23.75;;;;;14.11;59.78;101771.00;6338326;22;45280;-89
2021/06/25 04:40:38;;;;;;;;;25.75;24.25;;;;;14.18;59.84;101775.13;6335021;22;47210;-90
2021/06/25 04:43:05;;;;;;;;;21.25;19.50;;;;;14.21;59.87;101776.78;6337286;22;45324;-89
2021/06/25 04:45:32;;;;;;;;;27.75;25.25;;;;;14.27;60.02;101776.56;6335446;22;45392;-90
2021/06/25 04:47:57;;;;;;;;;28.75;23.00;;;;;14.33;60.01;101765.03;6337880;22;45185;-89
2021/06/25 04:50:23;;;;;;;;;23.50;23.50;;;;;14.36;59.88;101775.41;6337574;22;45742;-89
2021/06/25 04:52:48;;;;;;;;;22.75;20.25;;;;;14.40;59.46;101763.91;6361570;22;44747;-89
2021/06/25 04:55:14;;;;;;;;;27.00;23.50;;;;;14.44;60.06;101765.50;6335835;22;45842;-89
2021/06/25 04:57:39;;;;;;;;;27.00;25.25;;;;;14.50;59.63;101765.31;6335991;22;45457;-89
2021/06/25 05:00:07;;;;;;;;;28.25;25.00;;;;;14.54;59.85;101766.03;6335409;22;47579;-89
2021/06/25 05:02:32;;;;;;;;;31.75;27.50;;;;;14.60;59.64;101767.56;6335299;22;45691;-89
2021/06/25 05:04:58;;;;;;;;;28.50;27.25;;;;;14.62;59.83;101771.84;6337733;22;45289;-89
2021/06/25 05:07:23;;;;;;;;;25.00;24.75;;;;;14.67;59.73;101767.28;6335784;22;45447;-90
2021/06/25 05:09:48;;;;;;;;;26.75;25.50;;;;;14.69;59.83;101764.63;6337511;22;45999;-89
2021/06/25 05:12:14;;;;;;;;;29.00;23.75;;;;;14.75;59.72;101766.16;6336932;22;44754;-89
2021/06/25 05:14:40;;;;;;;;;25.50;23.75;;;;;14.78;59.84;101771.31;6335236;22;45610;-89
2021/06/25 05:17:05;;;;;;;;;27.75;24.25;;;;;14.82;59.75;101775.53;6336144;22;45704;-89
2021/06/25 05:19:30;;;;;;;;;26.50;24.75;;;;;14.87;59.73;101772.72;6334928;22;48144;-88
2021/06/25 05:21:56;;;;;;;;;26.75;23.25;;;;;14.93;59.73;101777.72;6335369;22;45604;-90
2021/06/25 05:24:22;;;;;;;;;23.50;23.50;;;;;14.96;60.07;101783.72;6335197;22;45612;-90
2021/06/25 05:26:48;;;;;;;;;24.00;23.50;;;;;14.99;59.49;101781.91;6337176;22;45514;-90
2021/06/25 05:29:13;;;;;;;;;23.50;23.50;;;;;15.01;59.20;101769.59;6334808;22;46996;-90
2021/06/25 05:31:39;;;;;;;;;27.25;24.00;;;;;15.05;59.39;101772.00;6337343;22;45320;-89
2021/06/25 05:34:04;;;;;;;;;30.00;26.25;;;;;15.09;59.73;101775.41;6335470;22;45511;-90
2021/06/25 05:36:29;;;;;;;;;23.75;23.25;;;;;15.09;59.52;101778.03;6337255;22;45235;-89
2021/06/25 05:38:55;;;;;;;;;25.00;25.00;;;;;15.11;59.29;101768.31;6335682;22;47237;-90
2021/06/25 05:41:20;;;;;;;;;25.50;25.50;;;;;15.15;59.22;101779.53;6334656;22;45354;-90
2021/06/25 05:43:46;;;;;;;;;27.50;25.50;;;;;15.19;59.35;101776.72;6335338;22;45206;-89
2021/06/25 05:46:12;;;;;;;;;28.00;24.50;;;;;15.22;59.39;101773.13;6337774;22;45276;-90
2021/06/25 05:48:39;;;;;;;;;25.50;21.00;;;;;15.27;59.18;101773.81;6336558;22;45310;-89
2021/06/25 05:51:05;;;;;;;;;30.00;27.50;;;;;15.31;59.26;101777.16;6336844;22;45321;-89
2021/06/25 05:53:31;;;;;;;;;22.50;22.50;;;;;15.35;58.99;101778.75;6337422;22;45295;-89
2021/06/25 05:55:57;;;;;;;;;27.50;24.25;;;;;15.36;59.36;101783.06;6334633;22;45418;-89
2021/06/25 05:58:22;;;;;;;;;26.25;21.50;;;;;15.41;59.01;101782.91;6336074;22;45285;-89
2021/06/25 06:00:48;;;;;;;;;27.75;25.00;;;;;15.43;59.18;101781.06;6360917;22;45255;-89
2021/06/25 06:03:13;;;;;;;;;21.75;21.00;;;;;15.46;59.04;101780.97;6337292;22;44660;-89
2021/06/25 06:05:39;;;;;;;;;28.25;23.75;;;;;15.49;59.12;101784.31;6362397;22;45305;-89
2021/06/25 06:08:05;;;;;;;;;24.50;20.75;;;;;15.52;59.06;101783.34;6337151;22;45549;-88
2021/06/25 06:10:30;;;;;;;;;24.00;23.25;;;;;15.57;58.84;101785.75;6336837;22;45241;-89
2021/06/25 06:12:56;;;;;;;;;21.75;20.50;;;;;15.58;58.92;101779.59;6334328;22;45398;-89
2021/06/25 06:15:21;;;;;;;;;27.25;23.00;;;;;15.59;58.93;101778.69;6335768;22;45309;-89
2021/06/25 06:17:48;;;;;;;;;27.00;24.50;;;;;15.61;58.82;101779.50;6361110;22;47126;-89
2021/06/25 06:20:19;;;;;;;;;29.75;27.25;;;;;15.66;58.55;101779.28;6337079;22;45303;-89
2021/06/25 06:33:46;;;;;;;;;26.25;24.00;;;;;15.75;58.64;101774.50;6336903;22;45333;-89
2021/06/25 06:36:26;;;;;;;;;23.75;23.00;;;;;15.79;58.25;101772.63;6336862;22;45542;-89
2021/06/25 06:38:53;;;;;;;;;27.00;25.50;;;;;15.80;58.37;101760.34;6336669;22;45386;-89
2021/06/25 06:41:19;;;;;;;;;27.00;25.25;;;;;15.85;58.38;101759.25;6336686;22;45212;-89
2021/06/25 06:43:46;;;;;;;;;27.75;25.75;;;;;15.91;58.15;101768.63;6361098;22;45512;-90
2021/06/25 06:46:13;;;;;;;;;26.00;24.50;;;;;15.95;57.71;101767.63;6336881;22;45360;-89
2021/06/25 06:48:42;;;;;;;;;27.00;27.00;;;;;15.95;57.52;101766.75;6333892;22;48274;-87
2021/06/25 06:51:12;;;;;;;;;25.00;23.75;;;;;15.99;57.78;101763.94;6333342;22;44920;-89
2021/06/25 06:53:42;;;;;;;;;30.00;27.50;;;;;16.05;57.75;101762.81;6334401;22;45463;-89
2021/06/25 06:56:10;;;;;;;;;25.75;23.50;;;;;16.13;57.54;101767.75;6334618;22;45324;-89
2021/06/25 06:58:36;;;;;;;;;30.00;26.75;;;;;16.12;57.05;101763.41;6333089;22;47370;-89
2021/06/25 07:01:01;;;;;;;;;28.50;26.75;;;;;16.14;57.17;101762.44;6336563;22;45199;-88
2021/06/25 07:03:26;;;;;;;;;23.75;22.50;;;;;16.19;56.92;101766.63;6334698;22;45291;-90
2021/06/25 07:05:52;;;;;;;;;29.50;25.00;;;;;16.26;56.96;101765.44;6337162;22;45337;-89
2021/06/25 07:08:17;;;;;;;;;23.25;22.00;;;;;16.32;57.15;101767.81;6334708;22;46987;-89
2021/06/25 07:10:43;;;;;;;;;26.75;25.00;;;;;16.40;56.95;101763.03;6337098;22;45383;-89
2021/06/25 07:13:08;;;;;;;;;25.75;22.50;;;;;16.46;56.69;101764.56;6337846;22;45462;-90
2021/06/25 07:15:34;;;;;;;;;25.75;22.75;;;;;16.50;56.47;101768.75;6336695;22;45238;-89
2021/06/25 07:18:00;;;;;;;;;20.75;20.75;;;;;16.58;56.44;101770.19;6337782;22;46102;-89
2021/06/25 07:20:25;;;;;;;;;24.00;21.25;;;;;16.65;56.06;101768.97;6335501;22;45317;-90
2021/06/25 07:22:51;;;;;;;;;23.00;20.25;;;;;16.69;56.01;101766.16;6337986;22;45398;-88
2021/06/25 07:25:16;;;;;;;;;27.75;25.00;;;;;16.74;55.87;101762.44;6336373;22;45305;-89
2021/06/25 07:27:42;;;;;;;;;23.75;21.25;;;;;16.83;55.91;101759.41;6337650;22;45311;-89
2021/06/25 07:30:08;;;;;;;;;25.25;24.00;;;;;16.91;55.84;101762.56;6335677;22;45681;-89
2021/06/25 07:32:34;;;;;;;;;22.75;22.25;;;;;17.00;55.59;101763.03;6361534;22;45433;-90
2021/06/25 07:34:59;;;;;;;;;21.25;19.50;;;;;17.06;55.40;101766.25;6338465;22;45358;-90
2021/06/25 07:37:25;;;;;;;;;22.25;21.50;;;;;17.09;55.24;101758.22;6361137;22;46973;-89
2021/06/25 07:39:50;;;;;;;;;23.00;21.25;;;;;17.16;54.83;101760.53;6337922;22;45354;-89
2021/06/25 07:42:16;;;;;;;;;23.75;22.00;;;;;17.21;54.95;101750.66;6337964;22;45284;-89
2021/06/25 07:44:42;;;;;;;;;21.25;21.25;;;;;17.25;54.38;101749.59;6338093;22;45197;-90
2021/06/25 07:47:08;;;;;;;;;22.50;20.00;;;;;17.30;53.93;101747.59;6336092;22;47101;-89
2021/06/25 07:49:34;;;;;;;;;20.75;20.50;;;;;17.35;53.61;101750.00;6337762;22;45300;-90
2021/06/25 07:51:59;;;;;;;;;23.50;20.25;;;;;17.39;53.77;101741.03;6362446;22;45419;-89
2021/06/25 07:54:25;;;;;;;;;24.75;23.75;;;;;17.41;53.29;101733.91;6338343;22;45418;-90
2021/06/25 07:56:50;;;;;;;;;13.25;11.75;;;;;17.49;53.53;101739.66;6336050;22;47228;-90
2021/06/25 07:59:16;;;;;;;;;20.25;20.00;;;;;17.53;53.38;101742.16;6337776;22;45338;-89
2021/06/25 08:01:41;;;;;;;;;21.25;18.25;;;;;17.58;52.05;101740.13;6337953;22;45446;-90
2021/06/25 08:04:07;;;;;;;;;19.75;19.00;;;;;17.56;52.76;101732.31;6338047;22;45324;-89
2021/06/25 08:06:32;;;;;;;;;21.25;20.50;;;;;17.65;52.29;101736.28;6336106;22;46949;-90
2021/06/25 08:08:58;;;;;;;;;20.25;20.00;;;;;17.68;52.23;101730.84;6362300;22;45202;-89
2021/06/25 08:11:24;;;;;;;;;17.25;17.00;;;;;17.72;52.33;101731.53;6338217;22;45517;-89
2021/06/25 08:13:49;;;;;;;;;16.75;14.25;;;;;17.77;52.92;101730.38;6336512;22;45404;-91
2021/06/25 08:16:15;;;;;;;;;19.75;18.25;;;;;17.85;52.73;101726.50;6362786;22;47224;-91
2021/06/25 08:18:40;;;;;;;;;19.25;18.50;;;;;17.92;52.55;101727.91;6337946;22;45228;-90
2021/06/25 08:21:05;;;;;;;;;19.75;18.00;;;;;17.98;52.29;101722.31;6335836;22;45484;-90
2021/06/25 08:23:31;;;;;;;;;16.75;16.75;;;;;18.06;51.68;101721.94;6336598;22;45163;-90
2021/06/25 08:25:56;;;;;;;;;18.50;18.00;;;;;18.11;51.38;101717.31;6337718;22;45835;-90
2021/06/25 08:28:22;;;;;;;;;21.75;19.75;;;;;18.16;51.38;101731.03;6336143;22;45223;-89
2021/06/25 08:30:48;;;;;;;;;15.50;15.25;;;;;18.19;51.41;101716.88;6337582;22;45399;-89
2021/06/25 08:33:14;;;;;;;;;21.75;18.50;;;;;18.21;51.38;101720.28;6335835;22;45266;-89
2021/06/25 08:35:40;;;;;;;;;22.50;20.50;;;;;18.24;51.14;101719.28;6337621;22;46024;-91
2021/06/25 08:38:05;;;;;;;;;21.75;20.50;;;;;18.27;51.55;101711.19;6335359;22;45291;-89
2021/06/25 08:40:31;;;;;;;;;18.25;16.75;;;;;18.32;51.03;101719.72;6337592;22;45320;-90
2021/06/25 08:42:57;;;;;;;;;19.50;17.50;;;;;18.33;51.36;101708.22;6338326;22;45378;-90
2021/06/25 08:45:24;;;;;;;;;19.50;18.25;;;;;18.39;51.34;101709.69;6336070;22;46643;-92
2021/06/25 08:47:51;;;;;;;;;21.50;21.00;;;;;18.45;51.55;101697.97;6333800;22;45296;-94
2021/06/25 08:50:19;;;;;;;;;16.25;15.25;;;;;18.56;51.56;101698.22;6337012;22;45412;-90
2021/06/25 08:52:47;;;;;;;;;21.00;20.50;;;;;18.69;51.18;101695.78;6361424;22;45288;-90
2021/06/25 08:55:15;;;;;;;;;18.00;17.50;;;;;18.82;51.26;101690.66;6362423;22;47968;-89
2021/06/25 08:57:40;;;;;;;;;22.25;18.75;;;;;18.96;50.90;101695.16;6335988;22;44665;-90
2021/06/25 09:00:09;;;;;;;;;19.75;19.00;;;;;19.05;50.70;101701.75;6336739;22;45315;-90
2021/06/25 09:02:36;;;;;;;;;22.50;19.00;;;;;19.17;50.81;101690.47;6336630;22;45387;-90
2021/06/25 09:05:03;;;;;;;;;19.25;18.00;;;;;19.27;50.67;101697.88;6337963;22;45441;-90
2021/06/25 09:07:41;;;;;;;;;17.75;17.50;;;;;19.35;49.65;101696.50;6335734;22;45272;-91
2021/06/25 09:10:08;;;;;;;;;20.75;20.00;;;;;19.40;48.99;101680.41;6336210;22;45336;-90
2021/06/25 09:12:33;;;;;;;;;20.50;19.00;;;;;19.47;49.83;101684.38;6336201;22;44736;-91
2021/06/25 09:15:06;;;;;;;;;18.25;16.50;;;;;19.52;48.17;101675.34;6335602;22;47237;-92
2021/06/25 09:17:52;;;;;;;;;17.00;17.00;;;;;19.51;48.91;101674.47;6337842;22;45201;-90
2021/06/25 09:20:38;;;;;;;;;20.50;18.75;;;;;19.55;48.86;101677.78;6337499;22;45438;-90
2021/06/25 09:23:08;;;;;;;;;21.25;18.25;;;;;19.56;49.35;101672.41;6335676;22;45329;-91
2021/06/25 09:25:52;;;;;;;;;16.50;15.75;;;;;19.67;48.49;101676.22;6335231;22;46844;-91
2021/06/25 09:28:27;;;;;;;;;19.00;18.00;;;;;19.73;48.62;101678.47;6335614;22;45260;-91
2021/06/25 09:30:53;;;;;;;;;15.25;15.25;;;;;19.80;49.01;101671.06;6337604;22;45252;-91
2021/06/25 09:33:18;;;;;;;;;19.50;16.75;;;;;19.90;48.54;101666.88;6338661;22;45347;-90
2021/06/25 09:35:52;;;;;;;;;22.00;19.50;;;;;19.98;48.85;101664.66;6334864;22;47218;-90
2021/06/25 09:38:39;;;;;;;;;20.00;19.25;;;;;20.03;47.11;101664.38;6337273;22;45181;-90
2021/06/25 09:41:18;;;;;;;;;20.50;19.75;;;;;20.06;47.74;101672.13;6337085;22;45585;-90
2021/06/25 09:43:56;;;;;;;;;18.00;17.00;;;;;20.08;47.96;101664.94;6336017;22;45550;-91
2021/06/25 09:46:28;;;;;;;;;16.75;16.75;;;;;20.16;47.47;101667.97;6362045;22;50592;-91
2021/06/25 09:48:56;;;;;;;;;21.00;19.75;;;;;20.21;47.97;101661.53;6336270;22;45266;-90
2021/06/25 09:51:22;;;;;;;;;19.50;18.50;;;;;20.29;48.02;101656.63;6335013;22;45265;-91
2021/06/25 09:54:06;;;;;;;;;14.75;12.00;;;;;20.41;48.03;101655.84;6362816;22;45474;-90
2021/06/25 09:56:35;;;;;;;;;21.50;19.00;;;;;20.51;47.86;101656.09;6335964;22;46719;-92
2021/06/25 09:59:45;;;;;;;;;19.00;16.00;;;;;20.61;47.86;101658.16;6337183;22;45447;-91
2021/06/25 10:02:22;;;;;;;;;16.25;16.25;;;;;20.72;47.86;101660.09;6334033;22;45424;-91
2021/06/25 10:04:51;;;;;;;;;18.00;17.75;;;;;20.76;48.48;101658.97;6338114;22;45193;-91
2021/06/25 10:07:19;;;;;;;;;17.75;16.25;;;;;20.83;47.23;101655.81;6336320;22;49813;-90
2021/06/25 10:09:46;;;;;;;;;17.75;16.50;;;;;20.86;47.76;101654.81;6335185;22;45591;-91
2021/06/25 10:12:31;;;;;;;;;16.00;14.67;;;;;20.87;47.32;101651.22;5117242;27;45462;-91
2021/06/25 10:14:57;;;;;;;;;14.00;14.00;;;;;20.93;46.99;101647.34;5096693;27;45490;-91
2021/06/25 10:17:27;;;;;;;;;13.25;12.25;;;;;21.06;47.32;101642.91;5101656;27;45420;-90
2021/06/25 10:19:58;;;;;;;;;14.50;14.50;;;;;21.18;46.66;101646.56;5134935;27;45353;-91
2021/06/25 10:22:26;;;;;;;;;14.75;14.75;;;;;21.33;46.97;101639.38;5116217;27;48218;-91
2021/06/25 10:24:52;;;;;;;;;13.25;10.25;;;;;21.47;46.32;101645.50;5109870;27;45705;-92
2021/06/25 10:27:20;;;;;;;;;18.00;13.25;;;;;21.59;46.03;101646.50;5117932;27;45347;-92
2021/06/25 10:29:47;;;;;;;;;14.50;14.50;;;;;21.65;46.07;101640.75;5112391;27;45682;-91
2021/06/25 10:32:15;;;;;;;;;17.75;16.50;;;;;21.72;45.89;101628.81;5101143;27;47242;-91
2021/06/25 10:34:43;;;;;;;;;15.33;15.00;;;;;21.75;45.41;101628.63;5102008;27;46038;-92
2021/06/25 10:37:12;;;;;;;;;15.75;15.75;;;;;21.79;45.51;101629.25;5113814;27;45458;-91
2021/06/25 10:39:38;;;;;;;;;15.50;15.00;;;;;21.87;45.55;101631.34;5117013;27;45554;-93
2021/06/25 10:42:09;;;;;;;;;14.00;13.75;;;;;21.97;45.01;101621.81;5112923;27;47138;-92
2021/06/25 10:44:43;;;;;;;;;15.00;15.00;;;;;22.13;45.15;101632.16;5096121;27;45786;-92
2021/06/25 10:47:15;;;;;;;;;14.00;14.00;;;;;22.26;45.52;101618.06;5102156;27;45514;-92
2021/06/25 10:49:59;;;;;;;;;17.00;15.00;;;;;22.42;45.32;101618.63;5098095;27;45327;-91
2021/06/25 10:52:32;;;;;;;;;16.00;14.00;;;;;22.55;44.42;101621.25;5100090;27;47476;-92
2021/06/25 10:55:24;;;;;;;;;10.33;10.00;;;;;22.69;45.05;101619.41;5128672;27;45590;-90
2021/06/25 10:57:49;;;;;;;;;15.00;13.67;;;;;22.86;44.05;101615.47;5108314;27;45902;-89
2021/06/25 11:00:30;;;;;;;;;11.67;11.33;;;;;22.95;44.83;101603.31;5116392;27;45488;-91
2021/06/25 11:02:56;;;;;;;;;13.75;13.00;;;;;23.02;42.91;101611.69;5115885;27;47302;-90
2021/06/25 11:05:21;;;;;;;;;14.00;14.00;;;;;23.06;44.48;101607.84;5115830;27;45781;-90
2021/06/25 11:07:47;;;;;;;;;13.25;12.50;;;;;23.15;44.93;101611.59;5114267;27;44903;-90
2021/06/25 11:10:21;;;;;;;;;12.50;12.25;;;;;23.26;44.10;101619.59;5115930;27;45431;-90
2021/06/25 11:12:47;;;;;;;;;11.33;11.33;;;;;23.25;43.84;101614.38;5134456;27;46348;-89
2021/06/25 11:15:12;;;;;;;;;15.25;12.50;;;;;23.27;44.09;101621.28;5134445;27;45318;-90
2021/06/25 11:17:43;;;;;;;;;14.00;14.00;;;;;23.20;43.47;101620.06;5131334;27;45457;-90
2021/06/25 11:20:27;;;;;;;;;13.75;13.75;;;;;23.08;43.83;101609.41;5115900;27;45625;-90